Little Birch, West Virginia
Current Conditions -  °F | °C
As of 5:15 PM on Saturday 25 Oct 2014 (Local Time) from KW22 Reporting Station
Broken Clouds Broken Clouds  
Wind Chill: 63°   Ceiling: 3400
Heat Index: 63°   Visibility: 10mi
Dew Point: 46°   Wind: 8mph
Humidity: 55%   Direction: 220°SW
Pressure: 29.87"   Gusts: 18mph
Location:  38.58°N, 80.71°W
Report Text: KW22 252115Z AUTO 22007G16KT 10SM BKN034 BKN042 17/08 A2987 RMK AO2
Loading
Personal Weather Stations






























Interactive Weather Map
Tropical Storm Tracking
New forecast layout! Learn more

10-Day Weather Forecast

Advertisements
Track Severe Weather on mobile